Time;durP1;ratioP1;P1;durP2;ratioP2;P2;SDS_P1;SDS_P2;PMS_P1;PMS_P2;Temp;Humidity;BMP_temperature;BMP_pressure;BME280_temperature;BME280_humidity;BME280_pressure;Samples;Min_cycle;Max_cycle;Signal;HPM_P1;HPM_P2
2023/08/11 00:01:22;;;;;;;4.22;2.60;;;16.30;69.40;;;15.35;86.38;96526.91;4930801;28;20032;-61
2023/08/11 00:03:48;;;;;;;4.70;2.75;;;16.20;69.40;;;15.32;86.04;96526.31;4946923;28;20579;-61
2023/08/11 00:06:16;;;;;;;4.05;2.60;;;16.20;69.60;;;15.29;87.12;96525.91;4937603;28;20479;-61
2023/08/11 00:08:42;;;;;;;5.93;2.83;;;16.10;69.50;;;15.27;87.02;96528.78;4966178;28;20074;-61
2023/08/11 00:11:08;;;;;;;5.43;2.58;;;16.10;69.60;;;15.23;87.15;96521.44;4948166;28;20043;-61
2023/08/11 00:13:34;;;;;;;4.50;2.80;;;16.10;69.80;;;15.22;87.76;96535.72;4963013;28;20125;-61
2023/08/11 00:16:04;;;;;;;4.90;2.78;;;16.10;70.00;;;15.17;87.41;96531.06;4964866;28;20122;-61
2023/08/11 00:18:30;;;;;;;3.63;2.50;;;16.10;70.20;;;15.14;88.42;96523.50;4963316;28;20582;-61
2023/08/11 00:20:55;;;;;;;5.68;2.92;;;16.10;70.60;;;15.12;89.32;96520.22;4961460;28;20054;-61
2023/08/11 00:23:21;;;;;;;4.30;3.25;;;16.10;70.80;;;15.12;88.96;96530.84;4964382;28;20043;-62
2023/08/11 00:25:47;;;;;;;3.30;2.90;;;16.00;70.90;;;15.07;89.19;96521.88;4946788;28;20031;-61
2023/08/11 00:28:13;;;;;;;3.63;2.60;;;15.90;71.10;;;15.02;89.57;96519.84;4946087;28;20048;-61
2023/08/11 00:30:38;;;;;;;4.82;2.80;;;15.90;71.50;;;14.97;91.58;96517.03;4947472;28;20091;-62
2023/08/11 00:33:05;;;;;;;3.55;2.67;;;15.80;71.70;;;14.93;90.96;96523.72;4930001;28;20126;-62
2023/08/11 00:35:31;;;;;;;4.78;2.90;;;15.80;71.60;;;14.91;91.47;96526.56;4945950;28;20521;-62
2023/08/11 00:37:57;;;;;;;3.33;2.70;;;15.80;71.60;;;14.91;91.35;96525.75;4947291;28;20438;-61
2023/08/11 00:40:23;;;;;;;4.10;2.90;;;15.80;71.60;;;14.89;91.73;96525.16;4946090;28;20106;-61
2023/08/11 00:42:49;;;;;;;5.97;3.03;;;15.80;71.70;;;14.90;90.29;96532.09;4930834;29;20101;-61
2023/08/11 00:45:16;;;;;;;4.15;2.67;;;15.80;71.80;;;14.87;91.20;96527.19;4947012;28;20134;-62
2023/08/11 00:47:42;;;;;;;4.85;3.15;;;15.80;71.90;;;14.82;91.62;96529.66;4965467;28;20137;-61
2023/08/11 00:50:11;;;;;;;4.07;3.05;;;15.70;72.30;;;14.76;92.87;96530.47;4932968;28;20581;-62
2023/08/11 00:52:38;;;;;;;5.22;3.33;;;15.60;72.50;;;14.74;92.05;96532.53;4950778;28;20046;-62
2023/08/11 00:55:05;;;;;;;3.90;2.95;;;15.70;72.30;;;14.72;93.57;96538.03;4965600;28;20073;-62
2023/08/11 00:57:31;;;;;;;4.18;3.45;;;15.60;72.30;;;14.68;93.14;96536.78;4964941;28;20038;-61
2023/08/11 00:59:59;;;;;;;4.03;2.95;;;15.60;72.10;;;14.65;92.61;96532.72;4966385;28;20038;-62
2023/08/11 01:02:24;;;;;;;3.78;3.10;;;15.60;72.30;;;14.61;92.62;96533.31;4965013;28;20530;-62
2023/08/11 01:04:50;;;;;;;5.13;2.90;;;15.50;72.50;;;14.59;93.57;96538.00;4966549;28;20077;-62
2023/08/11 01:07:25;;;;;;;4.97;3.13;;;15.50;72.50;;;14.55;94.43;96540.25;4964319;28;20064;-62
2023/08/11 01:09:59;;;;;;;4.20;3.17;;;15.50;72.30;;;14.54;93.77;96533.31;4948876;28;20038;-62
2023/08/11 01:12:31;;;;;;;3.47;2.72;;;15.50;72.30;;;14.48;93.63;96536.75;4966306;28;20035;-62
2023/08/11 01:15:19;;;;;;;6.25;3.20;;;15.40;72.70;;;14.48;95.94;96539.41;4947148;28;20035;-62
2023/08/11 01:17:45;;;;;;;3.78;2.97;;;15.40;72.80;;;14.45;92.90;96533.72;4921698;29;20036;-62
2023/08/11 01:20:11;;;;;;;3.40;2.80;;;15.40;72.90;;;14.43;94.07;96536.56;4929466;28;20038;-62
2023/08/11 01:22:41;;;;;;;4.20;3.20;;;15.40;73.10;;;14.45;95.19;96541.66;4945425;28;20050;-62
2023/08/11 01:25:08;;;;;;;6.75;3.08;;;15.40;73.10;;;14.41;94.31;96533.28;4930669;28;20106;-62
2023/08/11 01:27:56;;;;;;;3.78;3.10;;;15.40;73.00;;;14.38;96.35;96533.69;4929789;28;20541;-62
2023/08/11 01:30:23;;;;;;;5.03;3.25;;;15.30;73.30;;;14.36;94.46;96541.00;4946591;28;20481;-62
2023/08/11 01:32:51;;;;;;;5.00;3.42;;;15.30;73.50;;;14.35;94.94;96539.38;4933404;29;20102;-61
2023/08/11 01:35:21;;;;;;;4.18;3.40;;;15.30;72.90;;;14.34;94.48;96543.03;4948551;28;20509;-61
2023/08/11 01:37:47;;;;;;;5.57;2.92;;;15.30;73.30;;;14.32;94.70;96545.09;4944588;28;20039;-62
2023/08/11 01:40:14;;;;;;;3.88;2.80;;;15.20;73.30;;;14.28;95.93;96546.50;4948855;28;20036;-62
2023/08/11 01:42:44;;;;;;;6.18;2.92;;;15.30;73.60;;;14.22;97.47;96549.94;4933303;29;20050;-62
2023/08/11 01:45:13;;;;;;;4.63;3.30;;;15.10;74.10;;;14.18;97.15;96546.06;4948487;28;20039;-61
2023/08/11 01:47:42;;;;;;;4.43;3.20;;;15.10;74.10;;;14.15;97.07;96554.41;4932013;28;20528;-62
2023/08/11 01:50:08;;;;;;;3.78;2.95;;;15.10;74.00;;;14.10;97.25;96542.59;4948520;28;20174;-62
2023/08/11 01:52:36;;;;;;;4.65;3.15;;;15.10;74.00;;;14.09;97.45;96545.44;4932992;29;20031;-61
2023/08/11 01:55:01;;;;;;;4.95;3.35;;;15.10;74.10;;;14.08;97.24;96539.34;4932594;28;20438;-61
2023/08/11 01:57:27;;;;;;;6.43;3.28;;;15.10;74.40;;;14.10;97.58;96542.59;4932199;28;20122;-61
2023/08/11 01:59:53;;;;;;;4.78;3.63;;;15.10;74.20;;;14.07;97.09;96535.06;4949814;28;20046;-62
2023/08/11 02:02:19;;;;;;;6.25;3.53;;;15.10;74.30;;;14.07;97.92;96536.91;4949813;28;20119;-61
2023/08/11 02:04:45;;;;;;;4.13;3.35;;;15.10;74.50;;;14.08;98.85;96539.34;4947773;28;20070;-62
2023/08/11 02:07:11;;;;;;;10.73;3.72;;;15.10;74.50;;;14.07;98.86;96537.72;4930010;28;20040;-62
2023/08/11 02:09:36;;;;;;;6.10;3.55;;;15.10;74.50;;;14.07;98.68;96543.00;4948249;28;20410;-62
2023/08/11 02:12:02;;;;;;;6.43;3.75;;;15.10;74.30;;;14.04;97.72;96543.41;4948036;28;20037;-62
2023/08/11 02:14:28;;;;;;;5.18;3.97;;;15.10;74.30;;;14.01;98.87;96538.47;4945843;28;20097;-62
2023/08/11 02:16:54;;;;;;;5.75;3.70;;;15.00;74.70;;;14.00;98.92;96542.16;4948382;28;20134;-62
2023/08/11 02:19:20;;;;;;;4.50;3.22;;;15.00;74.60;;;13.99;98.63;96545.00;4947761;28;20046;-62
2023/08/11 02:21:45;;;;;;;5.70;3.88;;;15.00;74.80;;;13.96;99.05;96535.63;4947978;28;20371;-61
2023/08/11 02:24:11;;;;;;;5.07;3.83;;;15.00;74.90;;;13.92;98.93;96534.41;4931807;28;20561;-60
2023/08/11 02:26:37;;;;;;;6.53;3.90;;;14.90;75.10;;;13.89;100.00;96541.91;4951044;28;20577;-61
2023/08/11 02:29:06;;;;;;;8.05;4.05;;;14.90;75.10;;;13.88;99.18;96542.94;4947940;28;20589;-61
2023/08/11 02:31:34;;;;;;;7.82;3.83;;;14.90;75.20;;;13.85;100.00;96541.50;4934476;28;20036;-61
2023/08/11 02:34:00;;;;;;;7.15;4.43;;;14.80;75.20;;;13.82;100.00;96541.91;4948203;28;20394;-61
2023/08/11 02:36:26;;;;;;;4.72;3.63;;;14.80;75.30;;;13.77;100.00;96541.66;4931954;28;20059;-62
2023/08/11 02:38:52;;;;;;;7.47;4.35;;;14.80;75.60;;;13.76;100.00;96532.09;4949616;28;20129;-61
2023/08/11 02:41:18;;;;;;;6.35;3.90;;;14.80;75.70;;;13.73;100.00;96543.88;4930523;28;20462;-62
2023/08/11 02:43:44;;;;;;;6.22;4.20;;;14.70;75.60;;;13.73;100.00;96545.72;4964285;28;20042;-62
2023/08/11 02:46:11;;;;;;;5.32;3.80;;;14.80;75.80;;;13.70;100.00;96546.13;4948140;28;20086;-62
2023/08/11 02:48:38;;;;;;;4.25;3.35;;;14.70;75.20;;;13.65;100.00;96533.50;4949878;28;20055;-61
2023/08/11 02:51:04;;;;;;;5.22;3.42;;;14.60;75.00;;;13.62;100.00;96533.09;4962718;28;20046;-61
2023/08/11 02:53:30;;;;;;;4.97;3.33;;;14.60;75.10;;;13.60;100.00;96535.09;4966942;28;20058;-61
2023/08/11 02:55:56;;;;;;;4.85;3.45;;;14.60;75.00;;;13.59;100.00;96538.75;4966408;28;20470;-61
2023/08/11 02:58:22;;;;;;;5.55;4.38;;;14.60;75.20;;;13.57;100.00;96530.19;4967275;28;20034;-61
2023/08/11 03:00:48;;;;;;;6.38;4.22;;;14.60;75.50;;;13.58;100.00;96529.19;4950334;28;20326;-61
2023/08/11 03:03:14;;;;;;;5.50;4.32;;;14.60;75.80;;;13.57;100.00;96532.84;4968264;28;20486;-61
2023/08/11 03:05:43;;;;;;;7.75;4.82;;;14.60;75.90;;;13.55;100.00;96526.94;4949746;28;20490;-61
2023/08/11 03:08:08;;;;;;;5.72;5.07;;;14.60;76.00;;;13.53;100.00;96534.25;4948017;28;20349;-61
2023/08/11 03:10:34;;;;;;;5.93;4.35;;;14.60;76.10;;;13.51;100.00;96539.72;4932149;29;20174;-61
2023/08/11 03:13:00;;;;;;;6.63;4.03;;;14.60;76.10;;;13.51;100.00;96525.69;4949173;28;20034;-61
2023/08/11 03:15:26;;;;;;;5.13;4.05;;;14.60;75.90;;;13.50;100.00;96527.53;4946892;28;20590;-61
2023/08/11 03:17:52;;;;;;;7.55;4.45;;;14.60;75.70;;;13.47;100.00;96531.38;4949753;28;20055;-62
2023/08/11 03:20:18;;;;;;;5.80;4.43;;;14.60;75.90;;;13.46;100.00;96540.31;4932020;28;20031;-61
2023/08/11 03:22:46;;;;;;;6.00;4.55;;;14.50;75.80;;;13.42;100.00;96533.81;4947505;28;20054;-61
2023/08/11 03:25:12;;;;;;;6.72;4.25;;;14.50;76.00;;;13.40;100.00;96533.19;4942962;28;20039;-61
2023/08/11 03:27:41;;;;;;;7.18;5.95;;;14.40;76.30;;;13.38;100.00;96540.50;4931513;28;20066;-61
2023/08/11 03:30:08;;;;;;;23.73;18.73;;;14.50;76.60;;;13.37;100.00;96535.41;4947886;28;20042;-61
2023/08/11 03:32:34;;;;;;;10.63;7.43;;;14.50;76.90;;;13.36;100.00;96539.88;4947228;28;20201;-61
2023/08/11 03:35:00;;;;;;;8.05;6.07;;;14.50;76.60;;;13.35;100.00;96542.69;4947537;28;20034;-63
2023/08/11 03:37:26;;;;;;;16.73;13.07;;;14.40;76.50;;;13.32;100.00;96549.19;4947097;28;20454;-62
2023/08/11 03:39:51;;;;;;;8.93;7.35;;;14.40;76.80;;;13.29;100.00;96538.19;4931647;29;20121;-62
2023/08/11 03:42:17;;;;;;;10.00;7.40;;;14.40;76.50;;;13.28;100.00;96541.84;4948295;28;20035;-62
2023/08/11 03:44:43;;;;;;;8.35;6.38;;;14.40;76.80;;;13.24;100.00;96537.97;4949614;28;20043;-61
2023/08/11 03:47:09;;;;;;;13.55;9.63;;;14.40;76.70;;;13.23;100.00;96547.72;4947702;28;20077;-61
2023/08/11 03:49:35;;;;;;;10.07;8.32;;;14.40;76.90;;;13.21;100.00;96549.75;4930925;28;20063;-62
2023/08/11 03:52:01;;;;;;;8.15;6.97;;;14.40;76.70;;;13.19;100.00;96554.41;4947050;28;20118;-61
2023/08/11 03:54:26;;;;;;;8.15;4.88;;;14.40;76.60;;;13.17;100.00;96553.75;4948386;28;20038;-61
2023/08/11 03:56:52;;;;;;;5.97;4.07;;;14.30;76.40;;;13.15;100.00;96558.41;4946236;28;20455;-62
2023/08/11 03:59:20;;;;;;;7.95;4.63;;;14.30;76.50;;;13.13;100.00;96557.78;4932100;28;20042;-61
2023/08/11 04:01:47;;;;;;;16.52;12.25;;;14.30;76.70;;;13.10;100.00;96571.38;4947470;28;20489;-62
2023/08/11 04:04:13;;;;;;;10.50;6.85;;;14.20;77.00;;;13.09;100.00;96569.72;4927898;29;20060;-63
2023/08/11 04:06:38;;;;;;;7.68;4.63;;;14.20;77.10;;;13.06;100.00;96570.13;4946288;28;20190;-64
2023/08/11 04:09:05;;;;;;;5.82;4.70;;;14.20;77.30;;;13.05;100.00;96574.59;4948420;28;20569;-66
2023/08/11 04:11:32;;;;;;;7.07;5.80;;;14.20;77.30;;;13.04;100.00;96572.97;4930363;28;20383;-64
2023/08/11 04:13:58;;;;;;;18.23;14.50;;;14.20;77.20;;;13.02;100.00;96574.16;4944851;28;20122;-67
2023/08/11 04:16:24;;;;;;;17.73;13.88;;;14.20;77.20;;;13.00;100.00;96576.19;4948313;28;20031;-62
2023/08/11 04:18:50;;;;;;;11.90;10.50;;;14.20;77.10;;;12.98;100.00;96580.84;4944867;28;20043;-62
2023/08/11 04:21:15;;;;;;;7.15;5.97;;;14.20;77.00;;;12.97;100.00;96579.22;4930819;29;20048;-62
2023/08/11 04:23:41;;;;;;;6.65;5.22;;;14.10;77.00;;;12.97;100.00;96581.84;4916200;29;20053;-62
2023/08/11 04:26:07;;;;;;;5.90;4.40;;;14.20;77.20;;;12.96;100.00;96578.41;4946864;28;20114;-62
2023/08/11 04:28:34;;;;;;;5.70;4.30;;;14.20;77.50;;;12.94;100.00;96584.88;4930537;28;20067;-62
2023/08/11 04:31:00;;;;;;;6.63;4.35;;;14.10;77.70;;;12.94;100.00;96582.22;4934221;28;20042;-61
2023/08/11 04:33:26;;;;;;;7.63;4.13;;;14.10;77.80;;;12.92;100.00;96586.91;4952765;28;20047;-62
2023/08/11 04:35:53;;;;;;;5.65;4.25;;;14.10;77.80;;;12.93;100.00;96585.88;4946757;28;20042;-62
2023/08/11 04:38:20;;;;;;;6.55;4.22;;;14.10;77.80;;;12.94;100.00;96585.69;4946845;28;20035;-62
2023/08/11 04:40:50;;;;;;;6.50;3.97;;;14.10;77.70;;;12.97;100.00;96580.03;4931066;29;20031;-62
2023/08/11 04:43:16;;;;;;;5.70;3.83;;;14.20;77.70;;;12.99;100.00;96590.38;4931166;29;20130;-62
2023/08/11 04:45:42;;;;;;;5.72;4.00;;;14.30;77.90;;;12.99;100.00;96585.94;4946155;28;20075;-62
2023/08/11 04:48:08;;;;;;;4.70;3.78;;;14.20;77.90;;;13.00;100.00;96586.75;4946870;28;20102;-62
2023/08/11 04:50:34;;;;;;;5.60;3.88;;;14.30;78.10;;;13.02;100.00;96579.44;4946817;28;20039;-62
2023/08/11 04:53:00;;;;;;;5.45;4.00;;;14.30;78.20;;;13.02;100.00;96582.91;4946681;28;20039;-62
2023/08/11 04:55:26;;;;;;;7.65;3.80;;;14.30;78.50;;;13.05;100.00;96589.63;4930360;28;20039;-63
2023/08/11 04:57:52;;;;;;;4.72;3.92;;;14.30;78.60;;;13.10;100.00;96592.50;4945947;28;20106;-63
2023/08/11 05:00:18;;;;;;;5.35;3.85;;;14.40;78.70;;;13.13;100.00;96592.13;4946894;28;20036;-63
2023/08/11 05:02:44;;;;;;;7.00;4.60;;;14.40;78.90;;;13.13;100.00;96582.38;4948221;28;20035;-63
2023/08/11 05:05:10;;;;;;;6.80;3.97;;;14.50;79.20;;;13.19;100.00;96596.66;4948247;28;20431;-63
2023/08/11 05:07:37;;;;;;;6.78;4.82;;;14.60;79.20;;;13.26;100.00;96594.88;4950095;28;20095;-63
2023/08/11 05:10:04;;;;;;;6.13;4.55;;;14.60;79.00;;;13.32;100.00;96602.03;4952190;28;20035;-64
2023/08/11 05:12:30;;;;;;;5.57;4.53;;;14.70;79.20;;;13.35;100.00;96591.09;4934366;28;20043;-63
2023/08/11 05:14:56;;;;;;;5.97;4.63;;;14.70;79.30;;;13.38;100.00;96600.44;4948360;28;20032;-68
2023/08/11 05:17:21;;;;;;;11.70;5.00;;;14.70;79.60;;;13.46;100.00;96600.28;4934125;28;20066;-69
2023/08/11 05:19:47;;;;;;;6.35;4.78;;;14.80;79.60;;;13.54;100.00;96607.22;4952058;28;20054;-68
2023/08/11 05:22:13;;;;;;;5.65;4.88;;;14.90;79.50;;;13.62;100.00;96596.53;4933246;29;20035;-70
2023/08/11 05:24:39;;;;;;;12.95;11.45;;;15.10;79.50;;;13.67;100.00;96594.91;4950381;28;20063;-67
2023/08/11 05:27:05;;;;;;;13.10;11.02;;;15.10;79.40;;;13.74;100.00;96600.22;4946766;28;20046;-62
2023/08/11 05:29:31;;;;;;;8.85;6.10;;;15.20;79.30;;;13.83;100.00;96596.41;4947460;28;20035;-65
2023/08/11 05:31:57;;;;;;;9.63;8.10;;;15.30;79.30;;;13.93;100.00;96594.22;4934883;28;20055;-64
2023/08/11 05:34:23;;;;;;;21.13;17.65;;;15.50;79.40;;;14.05;100.00;96599.75;4946933;28;20545;-64
2023/08/11 05:36:48;;;;;;;10.48;7.05;;;15.60;79.00;;;14.17;100.00;96600.81;4950218;28;20039;-63
2023/08/11 05:39:14;;;;;;;8.10;5.78;;;15.70;78.80;;;14.24;100.00;96596.34;4948932;28;20149;-66
2023/08/11 05:41:41;;;;;;;6.00;5.13;;;15.70;78.70;;;14.36;100.00;96594.75;4949408;28;20068;-66
2023/08/11 05:44:06;;;;;;;8.05;5.03;;;16.00;78.10;;;14.52;100.00;96598.91;4943556;28;20043;-65
2023/08/11 05:46:32;;;;;;;7.43;4.80;;;16.10;77.70;;;14.63;100.00;96598.28;4939444;28;20588;-63
2023/08/11 05:48:58;;;;;;;10.10;4.82;;;16.30;77.30;;;14.78;100.00;96600.75;4966271;28;20039;-64
2023/08/11 05:51:24;;;;;;;5.32;4.30;;;16.50;76.70;;;14.92;100.00;96604.22;4974957;28;20035;-64
2023/08/11 05:53:49;;;;;;;7.13;4.65;;;16.60;75.90;;;15.05;100.00;96593.63;4949237;28;20082;-67
2023/08/11 05:56:15;;;;;;;5.85;4.38;;;16.80;75.50;;;15.21;100.00;96593.22;4964703;28;20454;-67
2023/08/11 05:58:41;;;;;;;5.88;3.95;;;17.00;75.50;;;15.36;100.00;96600.09;4963336;28;20791;-65
2023/08/11 06:01:07;;;;;;;6.20;4.03;;;17.20;75.00;;;15.54;100.00;96608.22;4956456;28;20035;-65
2023/08/11 06:03:32;;;;;;;5.10;4.05;;;17.50;74.80;;;15.71;100.00;96598.84;4965532;28;20524;-64
2023/08/11 06:06:04;;;;;;;5.78;3.80;;;17.60;74.50;;;15.88;100.00;96604.50;4966132;28;20110;-63
2023/08/11 06:08:30;;;;;;;5.22;3.80;;;17.80;74.20;;;16.05;100.00;96596.88;4942468;28;20146;-63
2023/08/11 06:10:56;;;;;;;6.47;4.00;;;18.10;73.40;;;16.21;100.00;96591.09;4931295;28;20078;-64
2023/08/11 06:13:22;;;;;;;7.43;4.63;;;18.30;72.40;;;16.40;100.00;96592.81;4948056;28;20079;-64
2023/08/11 06:15:52;;;;;;;4.80;3.75;;;18.60;71.30;;;16.60;100.00;96594.53;4927768;28;20039;-64
2023/08/11 06:18:18;;;;;;;7.77;3.70;;;18.80;71.00;;;16.77;100.00;96595.69;4954411;28;20067;-63
2023/08/11 06:20:44;;;;;;;4.80;3.45;;;19.00;70.30;;;16.95;100.00;96593.06;4944650;28;20090;-64
2023/08/11 06:23:12;;;;;;;5.55;3.88;;;19.20;69.80;;;17.15;100.00;96601.69;4943970;28;20562;-65
2023/08/11 06:25:38;;;;;;;4.88;3.58;;;19.40;69.10;;;17.33;100.00;96592.97;4947763;28;20035;-66
2023/08/11 06:28:04;;;;;;;5.10;3.85;;;19.70;68.30;;;17.49;100.00;96599.56;4948691;28;20030;-64
2023/08/11 06:30:30;;;;;;;6.35;4.10;;;19.90;67.90;;;17.64;100.00;96600.00;4932032;28;20074;-63
2023/08/11 06:32:56;;;;;;;5.63;3.65;;;20.10;67.20;;;17.80;100.00;96598.66;4916713;29;20118;-66
2023/08/11 06:35:22;;;;;;;5.03;4.00;;;20.30;66.40;;;17.95;100.00;96595.63;4928649;28;20062;-64
2023/08/11 06:37:48;;;;;;;5.70;3.60;;;20.50;66.30;;;18.10;100.00;96595.22;4918326;28;20357;-65
2023/08/11 06:40:14;;;;;;;4.63;3.83;;;20.60;65.80;;;18.24;100.00;96599.34;4932680;29;20040;-65
2023/08/11 06:42:40;;;;;;;4.88;3.70;;;20.80;65.30;;;18.38;100.00;96602.66;4946894;28;20051;-65
2023/08/11 06:45:06;;;;;;;7.57;4.20;;;21.00;64.70;;;18.49;98.07;96601.88;4942893;28;20560;-64
2023/08/11 06:47:34;;;;;;;13.77;10.68;;;21.20;64.20;;;18.65;97.65;96601.28;4944162;28;20035;-66
2023/08/11 06:50:00;;;;;;;8.35;6.55;;;21.50;63.60;;;18.78;97.43;96603.72;4948659;28;20450;-66
2023/08/11 06:52:26;;;;;;;5.25;4.07;;;21.70;63.30;;;18.90;97.07;96611.75;4907160;29;20102;-66
2023/08/11 06:54:52;;;;;;;6.88;3.95;;;21.80;63.00;;;19.05;96.82;96611.34;4944504;28;20086;-65
2023/08/11 06:57:20;;;;;;;7.25;3.83;;;22.00;62.50;;;19.17;95.09;96610.28;4950222;28;20039;-67
2023/08/11 06:59:45;;;;;;;6.25;4.13;;;22.00;62.50;;;19.28;94.76;96616.69;4944656;28;20039;-65
2023/08/11 07:02:11;;;;;;;5.05;3.70;;;22.00;62.40;;;19.41;95.25;96612.97;4948100;28;20121;-65
2023/08/11 07:04:37;;;;;;;9.50;5.07;;;22.20;62.40;;;19.54;95.03;96615.47;4947449;28;20071;-66
2023/08/11 07:07:03;;;;;;;6.40;3.60;;;22.50;62.20;;;19.67;93.47;96614.38;4931582;29;20067;-63
2023/08/11 07:09:28;;;;;;;5.15;3.60;;;22.40;61.50;;;19.78;92.03;96622.41;4930607;28;20074;-64
2023/08/11 07:11:54;;;;;;;5.10;4.03;;;22.50;61.80;;;19.89;93.63;96624.22;4950310;28;20046;-65
2023/08/11 07:14:20;;;;;;;4.85;3.35;;;22.80;62.80;;;20.03;93.22;96619.44;4937962;28;20649;-66
2023/08/11 07:16:46;;;;;;;5.40;3.83;;;22.90;61.60;;;20.15;92.17;96612.22;4945624;28;20039;-65
2023/08/11 07:19:11;;;;;;;7.88;3.63;;;22.90;61.50;;;20.28;91.45;96621.81;4945135;28;20601;-65
2023/08/11 07:21:37;;;;;;;4.15;3.25;;;22.90;61.10;;;20.43;91.25;96616.81;4940903;28;20768;-66
2023/08/11 07:24:03;;;;;;;10.73;7.32;;;23.10;61.20;;;20.59;90.09;96617.06;4945105;28;20042;-66
2023/08/11 07:26:29;;;;;;;8.48;5.85;;;23.30;60.60;;;20.73;89.58;96616.56;4944343;28;20102;-65
2023/08/11 07:28:55;;;;;;;4.82;3.60;;;23.50;60.70;;;20.91;88.79;96620.06;4958530;28;20525;-65
2023/08/11 07:31:20;;;;;;;5.82;3.10;;;23.70;59.20;;;21.05;87.31;96606.16;4944646;28;20130;-64
2023/08/11 07:33:46;;;;;;;4.53;3.15;;;24.00;58.60;;;21.28;86.47;96609.75;4947075;28;20039;-64
2023/08/11 07:36:12;;;;;;;5.45;3.30;;;24.30;58.10;;;21.49;85.50;96603.63;4947191;28;20530;-65
2023/08/11 07:38:37;;;;;;;5.85;3.25;;;24.70;57.30;;;21.74;84.92;96603.19;4946830;28;20532;-63
2023/08/11 07:41:03;;;;;;;6.88;3.33;;;25.30;55.90;;;22.01;83.75;96606.78;4917049;28;20471;-63
2023/08/11 07:43:29;;;;;;;5.93;3.10;;;25.90;53.80;;;22.30;83.32;96612.75;4945737;28;20537;-64
2023/08/11 07:45:55;;;;;;;5.20;3.33;;;26.30;53.20;;;22.58;82.14;96597.50;4943438;28;20078;-63
2023/08/11 07:48:21;;;;;;;5.60;3.38;;;26.70;52.10;;;22.86;80.76;96601.88;4948139;28;20059;-63
2023/08/11 07:50:46;;;;;;;4.35;3.00;;;27.10;50.70;;;23.13;79.56;96605.31;4950182;28;20047;-64
2023/08/11 07:53:12;;;;;;;4.28;2.70;;;27.60;50.70;;;23.43;80.62;96604.72;4946807;28;20114;-63
2023/08/11 07:55:38;;;;;;;5.72;3.00;;;28.00;50.60;;;23.70;77.75;96593.91;4947100;28;20131;-62
2023/08/11 07:58:04;;;;;;;4.47;3.15;;;28.40;48.10;;;23.99;76.48;96593.50;4943004;28;20367;-63
2023/08/11 08:00:30;;;;;;;6.68;3.00;;;28.60;47.10;;;24.18;74.60;96589.31;4928661;29;20430;-64
2023/08/11 08:02:55;;;;;;;7.35;2.70;;;28.70;46.80;;;24.45;73.39;96582.97;4946938;28;20047;-65
2023/08/11 08:05:21;;;;;;;4.07;2.90;;;29.00;46.40;;;24.70;72.53;96580.34;4928866;28;20569;-62
2023/08/11 08:07:47;;;;;;;4.20;2.78;;;29.20;46.40;;;25.00;71.67;96585.78;4930425;29;20035;-65
2023/08/11 08:10:14;;;;;;;6.18;3.25;;;29.60;45.50;;;25.30;69.33;96581.44;4930091;29;20094;-63
2023/08/11 08:12:42;;;;;;;6.22;2.65;;;29.80;44.10;;;25.56;67.61;96572.25;4930497;28;20043;-65
2023/08/11 08:15:09;;;;;;;3.42;2.40;;;30.00;43.20;;;25.87;67.45;96583.00;4944337;28;20498;-65
2023/08/11 08:17:36;;;;;;;3.50;2.60;;;30.30;43.70;;;26.18;66.35;96583.69;4947688;28;20035;-64
2023/08/11 08:20:04;;;;;;;3.22;2.40;;;30.60;43.70;;;26.48;65.69;96577.34;4943851;28;20047;-65
2023/08/11 08:22:32;;;;;;;5.57;2.65;;;30.90;42.70;;;26.70;63.26;96575.06;4946620;28;20035;-67
2023/08/11 08:24:58;;;;;;;4.13;2.08;;;31.10;40.80;;;26.96;61.07;96573.03;4946164;28;20042;-66
2023/08/11 08:27:24;;;;;;;3.92;2.20;;;31.40;39.30;;;27.19;59.98;96570.72;4937968;28;20039;-65
2023/08/11 08:29:53;;;;;;;3.30;2.33;;;31.60;39.10;;;27.41;58.39;96546.72;4931067;28;20173;-65
2023/08/11 08:32:20;;;;;;;5.00;2.30;;;31.80;39.50;;;27.62;58.80;96569.78;4932531;28;20035;-65
2023/08/11 08:34:46;;;;;;;4.35;2.25;;;32.10;39.70;;;27.84;58.42;96563.03;4942747;28;20141;-66
2023/08/11 08:37:11;;;;;;;3.70;2.47;;;32.30;38.60;;;27.97;56.70;96554.25;4946238;28;20810;-64
2023/08/11 08:39:37;;;;;;;3.00;2.22;;;32.40;37.20;;;28.22;56.60;96555.81;4946510;28;20074;-65
2023/08/11 08:42:04;;;;;;;3.33;2.47;;;32.80;37.20;;;28.42;54.87;96542.06;4946833;28;20070;-66
2023/08/11 08:44:30;;;;;;;3.65;2.20;;;32.90;36.40;;;28.59;54.21;96538.84;4929920;29;20043;-63
2023/08/11 08:46:56;;;;;;;3.58;2.13;;;32.90;36.80;;;28.83;53.73;96536.06;4932286;28;20071;-64
2023/08/11 08:49:27;;;;;;;3.40;2.15;;;33.30;36.50;;;29.09;50.42;96512.91;4925105;28;20074;-64
2023/08/11 08:51:53;;;;;;;3.92;2.00;;;33.50;36.20;;;29.31;52.47;96528.50;4937866;28;20046;-64
2023/08/11 08:54:19;;;;;;;4.55;2.40;;;33.80;35.70;;;29.52;51.99;96523.53;4913473;29;20043;-64
2023/08/11 08:56:45;;;;;;;7.30;2.70;;;34.00;36.30;;;29.73;51.71;96530.19;4928775;28;20134;-65
2023/08/11 08:59:11;;;;;;;51.15;15.50;;;34.20;35.80;;;29.95;50.48;96524.06;4925788;28;20039;-65
2023/08/11 09:01:37;;;;;;;7.60;3.70;;;34.30;35.30;;;30.13;50.73;96528.59;4942609;28;20874;-66
2023/08/11 09:04:04;;;;;;;5.60;2.60;;;34.50;35.40;;;30.32;50.54;96524.91;4929422;28;20070;-63
2023/08/11 09:06:30;;;;;;;5.18;2.70;;;34.60;35.50;;;30.50;48.56;96515.84;4945639;28;20521;-65
2023/08/11 09:08:55;;;;;;;4.85;2.10;;;34.80;33.80;;;30.64;47.78;96516.63;4912860;28;20464;-64
2023/08/11 09:11:21;;;;;;;3.30;1.85;;;34.80;34.10;;;30.78;47.48;96511.16;4939212;28;20106;-64
2023/08/11 09:13:47;;;;;;;3.60;2.17;;;35.00;33.40;;;30.90;46.96;96508.69;4942761;28;20581;-65
2023/08/11 09:16:13;;;;;;;3.42;2.00;;;35.00;33.20;;;30.97;45.37;96503.59;4943904;28;20112;-65
2023/08/11 09:18:39;;;;;;;3.42;1.90;;;35.00;33.20;;;31.15;45.11;96503.72;4931601;29;20589;-64
2023/08/11 09:21:05;;;;;;;2.72;2.00;;;35.00;32.50;;;31.29;44.18;96497.13;4930667;28;20041;-64
2023/08/11 09:23:32;;;;;;;3.28;2.00;;;35.00;31.40;;;31.41;43.92;96488.38;4940757;28;20070;-63
2023/08/11 09:25:58;;;;;;;6.05;2.47;;;35.20;32.80;;;31.51;42.83;96479.16;4924200;28;20510;-63
2023/08/11 09:28:24;;;;;;;5.00;2.38;;;35.40;31.90;;;31.66;43.24;96493.09;4927382;28;20105;-64
2023/08/11 09:30:50;;;;;;;4.97;2.20;;;35.60;33.10;;;31.82;42.77;96482.63;4933483;28;20063;-64
2023/08/11 09:33:17;;;;;;;4.95;2.20;;;35.70;31.80;;;32.03;42.40;96471.97;4977406;28;20756;-65
2023/08/11 09:35:43;;;;;;;3.00;2.25;;;35.90;31.50;;;32.19;40.85;96467.69;4948580;28;20406;-63
2023/08/11 09:38:09;;;;;;;3.33;2.13;;;36.00;30.00;;;32.30;40.42;96460.00;4962697;28;20058;-65
2023/08/11 09:40:35;;;;;;;3.88;1.80;;;36.20;30.30;;;32.48;39.85;96458.09;4948273;28;20070;-65
2023/08/11 09:43:00;;;;;;;7.57;2.53;;;36.10;30.10;;;32.58;39.74;96463.22;4945347;28;20135;-68
2023/08/11 09:45:26;;;;;;;4.65;2.17;;;36.50;29.80;;;32.71;39.13;96456.81;4963867;28;20030;-65
2023/08/11 09:47:52;;;;;;;6.85;3.25;;;36.50;29.70;;;32.92;38.87;96461.59;4961936;28;20518;-65
2023/08/11 09:50:20;;;;;;;3.53;2.00;;;36.90;30.40;;;33.05;38.72;96460.63;4965325;28;20038;-70
2023/08/11 09:52:46;;;;;;;3.05;2.03;;;37.10;29.20;;;33.19;38.90;96458.50;4949110;28;20126;-69
2023/08/11 09:55:12;;;;;;;3.80;1.90;;;37.20;29.80;;;33.26;38.83;96458.78;4968425;28;20065;-72
2023/08/11 09:57:40;;;;;;;3.97;2.03;;;37.10;30.10;;;33.39;37.92;96444.19;4981978;28;20057;-66
2023/08/11 10:00:11;;;;;;;3.28;2.10;;;37.60;28.60;;;33.55;37.27;96432.72;4950103;28;20049;-66
2023/08/11 10:02:57;;;;;;;3.70;1.77;;;38.00;27.30;;;33.68;36.58;96428.94;4964976;28;20066;-64
2023/08/11 10:05:23;;;;;;;4.25;1.83;;;38.20;28.00;;;33.89;36.87;96438.00;4951933;28;20118;-64
2023/08/11 10:07:49;;;;;;;3.75;1.90;;;38.70;28.10;;;34.02;37.43;96445.16;4954479;28;20062;-67
2023/08/11 10:10:17;;;;;;;3.45;1.70;;;39.00;27.60;;;34.15;36.97;96443.28;4950877;28;20037;-66
2023/08/11 10:12:48;;;;;;;2.25;1.50;;;39.30;27.60;;;34.33;36.17;96441.22;4967464;28;20062;-66